Vremea mâine în Făgăraș - Romania

Vrei sa afli care e starea vremii acum in Brasov - Romania? Dorim sa iti furnizam starea vremii pentru Brasov - Romania. Starea vremii Brasov - Romania pentru astazi.

Vremea mâine în Făgăraș

Temperatura minimă:
7.8 °C

Temperatura maximă:
24 °C

Mâine va fi: Patchy rain nearby
Precipitații: 83 %
Umiditate: 65%
Viteza maximă vânt mâine:
13.7 km/h

Evoluția vremii in Făgăraș pe ore mâine

Ora: 03:00
Temperatura: °C
Sansa de precipitatii: %
Ora Descriere Temp Se simte Precipitatii Umiditate Vant
00:00Senin10.9°10.6°0%64%SE 5.8 KM/H
01:00Senin10.1°9.7°0%68%SE 5.8 KM/H
02:00Senin9.3°8.8°0%74%SE 5.8 KM/H
03:00Senin8.8°8.1°0%79%SE 6.1 KM/H
04:00Senin8.4°7.7°0%83%ESE 5.8 KM/H
05:00Senin7.5°0%85%SE 5 KM/H
06:00Senin7.8°7.2°0%86%SE 5 KM/H
07:00Senin8.5°0%83%ESE 5.4 KM/H
08:00Senin13.1°13.4°0%74%ESE 4.7 KM/H
09:00Senin15.8°15.8°0%66%SE 4.3 KM/H
10:00Senin18.1°18.1°0%60%S 3.6 KM/H
11:00Senin20.2°20.2°0%55%SSW 3.2 KM/H
12:00Senin21.7°21.7°0%50%WSW 3.6 KM/H
13:00Senin22.9°24.6°0%47%W 3.6 KM/H
14:00Senin23.7°24.8°0%43%WNW 4.3 KM/H
15:00Senin23.9°24.7°0%40%NW 5.4 KM/H
16:00Senin24°24.7°0%37%WNW 6.1 KM/H
17:00Senin23.8°24.6°0%38%WNW 7.2 KM/H
18:00Patchy rain nearby23.3°24.6°78%43%W 5.4 KM/H
19:00Patchy light rain in area with thunder20.1°20.1°100%61%SW 13.7 KM/H
20:0013.7°13.1°0%79%SSW 10.4 KM/H
21:00Ploi usoare11.8°12°100%83%W 4.3 KM/H
22:0010.9°10.9°0%86%N 2.5 KM/H
23:0010.7°10.4°0%87%ESE 5.4 KM/H




tutorials